sensor_id;sensor_type;location;lat;lon;timestamp;P1;durP1;ratioP1;P2;durP2;ratioP2
1128;SDS011;553;51.038;7.216;2022-07-29T00:02:25;4.00;;;1.67;;
1128;SDS011;553;51.038;7.216;2022-07-29T00:04:53;7.07;;;1.37;;
1128;SDS011;553;51.038;7.216;2022-07-29T00:07:20;2.90;;;1.50;;
1128;SDS011;553;51.038;7.216;2022-07-29T00:09:46;4.10;;;1.60;;
1128;SDS011;553;51.038;7.216;2022-07-29T00:12:18;6.50;;;2.03;;
1128;SDS011;553;51.038;7.216;2022-07-29T00:14:51;5.53;;;1.50;;
1128;SDS011;553;51.038;7.216;2022-07-29T00:17:18;2.40;;;1.40;;
1128;SDS011;553;51.038;7.216;2022-07-29T00:19:45;3.47;;;1.70;;
1128;SDS011;553;51.038;7.216;2022-07-29T00:22:12;4.90;;;2.00;;
1128;SDS011;553;51.038;7.216;2022-07-29T00:24:38;2.30;;;1.50;;
1128;SDS011;553;51.038;7.216;2022-07-29T00:27:05;3.40;;;1.73;;
1128;SDS011;553;51.038;7.216;2022-07-29T00:29:32;3.87;;;1.70;;
1128;SDS011;553;51.038;7.216;2022-07-29T00:32:00;3.43;;;1.70;;
1128;SDS011;553;51.038;7.216;2022-07-29T00:34:28;3.00;;;1.20;;
1128;SDS011;553;51.038;7.216;2022-07-29T00:37:13;6.07;;;1.83;;
1128;SDS011;553;51.038;7.216;2022-07-29T00:39:40;4.17;;;1.80;;
1128;SDS011;553;51.038;7.216;2022-07-29T00:42:07;7.00;;;1.70;;
1128;SDS011;553;51.038;7.216;2022-07-29T00:44:37;3.83;;;1.50;;
1128;SDS011;553;51.038;7.216;2022-07-29T00:47:08;2.00;;;1.30;;
1128;SDS011;553;51.038;7.216;2022-07-29T00:49:36;3.10;;;1.80;;
1128;SDS011;553;51.038;7.216;2022-07-29T00:52:04;2.60;;;1.50;;
1128;SDS011;553;51.038;7.216;2022-07-29T00:54:32;4.17;;;2.00;;
1128;SDS011;553;51.038;7.216;2022-07-29T00:57:04;2.27;;;1.50;;
1128;SDS011;553;51.038;7.216;2022-07-29T00:59:33;5.53;;;2.07;;
1128;SDS011;553;51.038;7.216;2022-07-29T01:02:01;4.97;;;1.80;;
1128;SDS011;553;51.038;7.216;2022-07-29T01:04:29;2.90;;;1.70;;
1128;SDS011;553;51.038;7.216;2022-07-29T01:06:57;4.10;;;1.77;;
1128;SDS011;553;51.038;7.216;2022-07-29T01:09:25;2.70;;;1.57;;
1128;SDS011;553;51.038;7.216;2022-07-29T01:12:15;2.60;;;1.40;;
1128;SDS011;553;51.038;7.216;2022-07-29T01:14:45;5.23;;;1.80;;
1128;SDS011;553;51.038;7.216;2022-07-29T01:17:16;3.20;;;1.80;;
1128;SDS011;553;51.038;7.216;2022-07-29T01:19:49;6.03;;;2.00;;
1128;SDS011;553;51.038;7.216;2022-07-29T01:31:28;4.23;;;1.80;;
1128;SDS011;553;51.038;7.216;2022-07-29T01:37:28;2.43;;;1.50;;
1128;SDS011;553;51.038;7.216;2022-07-29T01:39:59;4.07;;;1.80;;
1128;SDS011;553;51.038;7.216;2022-07-29T01:42:35;4.80;;;1.80;;
1128;SDS011;553;51.038;7.216;2022-07-29T01:47:46;5.60;;;2.23;;
1128;SDS011;553;51.038;7.216;2022-07-29T01:50:38;2.77;;;1.60;;
1128;SDS011;553;51.038;7.216;2022-07-29T01:53:11;2.90;;;2.10;;
1128;SDS011;553;51.038;7.216;2022-07-29T01:55:42;6.90;;;1.60;;
1128;SDS011;553;51.038;7.216;2022-07-29T01:58:11;3.63;;;1.53;;
1128;SDS011;553;51.038;7.216;2022-07-29T02:00:39;5.00;;;1.70;;
1128;SDS011;553;51.038;7.216;2022-07-29T02:03:09;4.67;;;1.47;;
1128;SDS011;553;51.038;7.216;2022-07-29T02:05:39;5.53;;;1.60;;
1128;SDS011;553;51.038;7.216;2022-07-29T02:08:09;2.43;;;1.63;;
1128;SDS011;553;51.038;7.216;2022-07-29T02:10:37;6.33;;;1.53;;
1128;SDS011;553;51.038;7.216;2022-07-29T02:13:06;3.03;;;2.03;;
1128;SDS011;553;51.038;7.216;2022-07-29T02:15:35;9.10;;;1.87;;
1128;SDS011;553;51.038;7.216;2022-07-29T02:18:05;6.13;;;1.70;;
1128;SDS011;553;51.038;7.216;2022-07-29T02:20:35;4.20;;;1.40;;
1128;SDS011;553;51.038;7.216;2022-07-29T02:23:03;2.73;;;1.70;;
1128;SDS011;553;51.038;7.216;2022-07-29T02:25:32;3.73;;;1.50;;
1128;SDS011;553;51.038;7.216;2022-07-29T02:28:03;4.10;;;2.10;;
1128;SDS011;553;51.038;7.216;2022-07-29T02:30:32;4.17;;;1.80;;
1128;SDS011;553;51.038;7.216;2022-07-29T02:33:03;2.70;;;1.60;;
1128;SDS011;553;51.038;7.216;2022-07-29T02:35:31;2.67;;;1.73;;
1128;SDS011;553;51.038;7.216;2022-07-29T02:38:00;7.33;;;1.80;;
1128;SDS011;553;51.038;7.216;2022-07-29T02:40:47;6.07;;;2.33;;
1128;SDS011;553;51.038;7.216;2022-07-29T02:43:16;4.80;;;2.13;;
1128;SDS011;553;51.038;7.216;2022-07-29T02:45:45;5.27;;;1.87;;
1128;SDS011;553;51.038;7.216;2022-07-29T02:48:17;4.00;;;1.77;;
1128;SDS011;553;51.038;7.216;2022-07-29T02:50:50;6.03;;;2.30;;
1128;SDS011;553;51.038;7.216;2022-07-29T02:53:24;5.67;;;1.50;;
1128;SDS011;553;51.038;7.216;2022-07-29T02:55:55;3.90;;;1.80;;
1128;SDS011;553;51.038;7.216;2022-07-29T02:58:27;2.63;;;1.70;;
1128;SDS011;553;51.038;7.216;2022-07-29T03:00:58;2.77;;;1.47;;
1128;SDS011;553;51.038;7.216;2022-07-29T03:03:29;3.43;;;1.70;;
1128;SDS011;553;51.038;7.216;2022-07-29T03:06:01;6.53;;;1.70;;
1128;SDS011;553;51.038;7.216;2022-07-29T03:08:29;5.37;;;1.40;;
1128;SDS011;553;51.038;7.216;2022-07-29T03:10:58;2.50;;;1.63;;
1128;SDS011;553;51.038;7.216;2022-07-29T03:13:27;7.53;;;2.30;;
1128;SDS011;553;51.038;7.216;2022-07-29T03:15:54;3.77;;;1.60;;
1128;SDS011;553;51.038;7.216;2022-07-29T03:18:22;4.13;;;1.57;;
1128;SDS011;553;51.038;7.216;2022-07-29T03:20:50;4.30;;;1.70;;
1128;SDS011;553;51.038;7.216;2022-07-29T03:23:20;3.93;;;1.93;;
1128;SDS011;553;51.038;7.216;2022-07-29T03:25:52;3.33;;;1.70;;
1128;SDS011;553;51.038;7.216;2022-07-29T03:28:19;3.83;;;1.97;;
1128;SDS011;553;51.038;7.216;2022-07-29T03:30:47;3.47;;;1.60;;
1128;SDS011;553;51.038;7.216;2022-07-29T03:33:15;3.30;;;2.00;;
1128;SDS011;553;51.038;7.216;2022-07-29T03:35:42;1.77;;;1.50;;
1128;SDS011;553;51.038;7.216;2022-07-29T03:38:08;3.07;;;2.03;;
1128;SDS011;553;51.038;7.216;2022-07-29T03:40:43;2.87;;;1.60;;
1128;SDS011;553;51.038;7.216;2022-07-29T03:43:14;2.80;;;1.60;;
1128;SDS011;553;51.038;7.216;2022-07-29T03:45:43;3.93;;;1.80;;
1128;SDS011;553;51.038;7.216;2022-07-29T03:48:17;4.10;;;2.00;;
1128;SDS011;553;51.038;7.216;2022-07-29T03:50:48;3.17;;;1.80;;
1128;SDS011;553;51.038;7.216;2022-07-29T03:53:16;3.87;;;1.73;;
1128;SDS011;553;51.038;7.216;2022-07-29T03:55:45;4.13;;;1.63;;
1128;SDS011;553;51.038;7.216;2022-07-29T03:58:14;2.53;;;1.90;;
1128;SDS011;553;51.038;7.216;2022-07-29T04:00:42;6.97;;;1.93;;
1128;SDS011;553;51.038;7.216;2022-07-29T04:03:10;6.43;;;1.83;;
1128;SDS011;553;51.038;7.216;2022-07-29T04:05:37;3.10;;;1.70;;
1128;SDS011;553;51.038;7.216;2022-07-29T04:08:04;5.93;;;1.60;;
1128;SDS011;553;51.038;7.216;2022-07-29T04:10:31;2.90;;;1.73;;
1128;SDS011;553;51.038;7.216;2022-07-29T04:13:01;4.60;;;1.83;;
1128;SDS011;553;51.038;7.216;2022-07-29T04:15:27;5.97;;;1.70;;
1128;SDS011;553;51.038;7.216;2022-07-29T04:17:58;2.97;;;1.90;;
1128;SDS011;553;51.038;7.216;2022-07-29T04:20:25;5.53;;;1.90;;
1128;SDS011;553;51.038;7.216;2022-07-29T04:22:52;4.03;;;1.77;;
1128;SDS011;553;51.038;7.216;2022-07-29T04:25:19;3.40;;;2.20;;
1128;SDS011;553;51.038;7.216;2022-07-29T04:27:46;4.93;;;1.70;;
1128;SDS011;553;51.038;7.216;2022-07-29T04:30:28;3.20;;;2.37;;
1128;SDS011;553;51.038;7.216;2022-07-29T04:32:56;9.00;;;2.00;;
1128;SDS011;553;51.038;7.216;2022-07-29T04:35:23;9.00;;;2.20;;
1128;SDS011;553;51.038;7.216;2022-07-29T04:37:50;3.83;;;1.80;;
1128;SDS011;553;51.038;7.216;2022-07-29T04:40:17;4.70;;;1.70;;
1128;SDS011;553;51.038;7.216;2022-07-29T04:42:44;5.60;;;2.10;;
1128;SDS011;553;51.038;7.216;2022-07-29T04:45:14;3.27;;;1.77;;
1128;SDS011;553;51.038;7.216;2022-07-29T04:47:47;5.40;;;2.00;;
1128;SDS011;553;51.038;7.216;2022-07-29T04:50:14;3.37;;;1.63;;
1128;SDS011;553;51.038;7.216;2022-07-29T04:52:41;4.90;;;2.30;;
1128;SDS011;553;51.038;7.216;2022-07-29T04:55:07;3.07;;;2.10;;
1128;SDS011;553;51.038;7.216;2022-07-29T04:57:35;4.10;;;1.80;;
1128;SDS011;553;51.038;7.216;2022-07-29T05:00:02;6.87;;;2.67;;
1128;SDS011;553;51.038;7.216;2022-07-29T05:02:31;7.37;;;2.50;;
1128;SDS011;553;51.038;7.216;2022-07-29T05:04:57;6.03;;;2.07;;
1128;SDS011;553;51.038;7.216;2022-07-29T05:07:24;4.83;;;2.10;;
1128;SDS011;553;51.038;7.216;2022-07-29T05:09:51;2.83;;;2.00;;
1128;SDS011;553;51.038;7.216;2022-07-29T05:12:19;4.40;;;1.90;;
1128;SDS011;553;51.038;7.216;2022-07-29T05:14:45;5.83;;;2.10;;
1128;SDS011;553;51.038;7.216;2022-07-29T05:17:12;6.87;;;2.43;;
1128;SDS011;553;51.038;7.216;2022-07-29T05:19:39;3.30;;;2.17;;
1128;SDS011;553;51.038;7.216;2022-07-29T05:22:05;5.77;;;2.30;;
1128;SDS011;553;51.038;7.216;2022-07-29T05:24:32;4.70;;;2.27;;
1128;SDS011;553;51.038;7.216;2022-07-29T05:26:59;4.37;;;1.83;;
1128;SDS011;553;51.038;7.216;2022-07-29T05:29:26;5.67;;;2.67;;
1128;SDS011;553;51.038;7.216;2022-07-29T05:32:10;2.83;;;1.77;;
1128;SDS011;553;51.038;7.216;2022-07-29T05:34:38;9.37;;;2.60;;
1128;SDS011;553;51.038;7.216;2022-07-29T05:37:15;6.10;;;1.90;;
1128;SDS011;553;51.038;7.216;2022-07-29T05:39:42;3.67;;;2.10;;
1128;SDS011;553;51.038;7.216;2022-07-29T05:42:15;2.87;;;2.00;;
1128;SDS011;553;51.038;7.216;2022-07-29T05:44:42;4.30;;;1.90;;
1128;SDS011;553;51.038;7.216;2022-07-29T05:47:09;2.83;;;2.23;;
1128;SDS011;553;51.038;7.216;2022-07-29T05:49:35;5.20;;;1.93;;
1128;SDS011;553;51.038;7.216;2022-07-29T05:52:02;3.20;;;1.63;;
1128;SDS011;553;51.038;7.216;2022-07-29T05:54:29;7.03;;;2.20;;
1128;SDS011;553;51.038;7.216;2022-07-29T05:56:56;5.10;;;2.43;;
1128;SDS011;553;51.038;7.216;2022-07-29T05:59:23;10.10;;;2.40;;
1128;SDS011;553;51.038;7.216;2022-07-29T06:01:55;4.80;;;2.27;;
1128;SDS011;553;51.038;7.216;2022-07-29T06:04:23;4.67;;;2.20;;
1128;SDS011;553;51.038;7.216;2022-07-29T06:06:50;7.60;;;2.00;;
1128;SDS011;553;51.038;7.216;2022-07-29T06:09:17;4.30;;;1.90;;
1128;SDS011;553;51.038;7.216;2022-07-29T06:11:43;5.50;;;2.00;;
1128;SDS011;553;51.038;7.216;2022-07-29T06:14:10;5.43;;;1.77;;
1128;SDS011;553;51.038;7.216;2022-07-29T06:16:37;4.70;;;1.90;;
1128;SDS011;553;51.038;7.216;2022-07-29T06:19:04;6.10;;;2.00;;
1128;SDS011;553;51.038;7.216;2022-07-29T06:21:30;3.73;;;1.87;;
1128;SDS011;553;51.038;7.216;2022-07-29T06:23:57;4.80;;;1.93;;
1128;SDS011;553;51.038;7.216;2022-07-29T06:26:24;6.90;;;2.20;;
1128;SDS011;553;51.038;7.216;2022-07-29T06:28:56;8.40;;;2.27;;
1128;SDS011;553;51.038;7.216;2022-07-29T06:31:23;3.43;;;2.03;;
1128;SDS011;553;51.038;7.216;2022-07-29T06:33:50;5.27;;;2.27;;
1128;SDS011;553;51.038;7.216;2022-07-29T06:36:19;4.93;;;1.67;;
1128;SDS011;553;51.038;7.216;2022-07-29T06:38:48;5.90;;;2.10;;
1128;SDS011;553;51.038;7.216;2022-07-29T06:41:17;6.73;;;2.23;;
1128;SDS011;553;51.038;7.216;2022-07-29T06:43:44;4.93;;;1.97;;
1128;SDS011;553;51.038;7.216;2022-07-29T06:46:19;3.20;;;1.57;;
1128;SDS011;553;51.038;7.216;2022-07-29T06:48:47;3.67;;;1.70;;
1128;SDS011;553;51.038;7.216;2022-07-29T06:51:15;6.20;;;2.00;;
1128;SDS011;553;51.038;7.216;2022-07-29T06:53:48;4.13;;;2.13;;
1128;SDS011;553;51.038;7.216;2022-07-29T06:56:31;6.37;;;2.00;;
1128;SDS011;553;51.038;7.216;2022-07-29T06:59:05;6.87;;;2.33;;
1128;SDS011;553;51.038;7.216;2022-07-29T07:01:32;9.27;;;2.40;;
1128;SDS011;553;51.038;7.216;2022-07-29T07:03:59;5.23;;;2.40;;
1128;SDS011;553;51.038;7.216;2022-07-29T07:06:25;7.77;;;2.40;;
1128;SDS011;553;51.038;7.216;2022-07-29T07:08:52;3.40;;;2.23;;
1128;SDS011;553;51.038;7.216;2022-07-29T07:11:19;6.30;;;1.97;;
1128;SDS011;553;51.038;7.216;2022-07-29T07:13:46;3.87;;;1.70;;
1128;SDS011;553;51.038;7.216;2022-07-29T07:16:13;4.50;;;2.00;;
1128;SDS011;553;51.038;7.216;2022-07-29T07:18:40;5.87;;;1.83;;
1128;SDS011;553;51.038;7.216;2022-07-29T07:21:07;3.50;;;1.80;;
1128;SDS011;553;51.038;7.216;2022-07-29T07:23:33;6.10;;;2.80;;
1128;SDS011;553;51.038;7.216;2022-07-29T07:26:00;4.17;;;2.50;;
1128;SDS011;553;51.038;7.216;2022-07-29T07:28:27;4.60;;;2.07;;
1128;SDS011;553;51.038;7.216;2022-07-29T07:30:53;4.27;;;2.40;;
1128;SDS011;553;51.038;7.216;2022-07-29T07:33:20;5.03;;;2.13;;
1128;SDS011;553;51.038;7.216;2022-07-29T07:35:47;7.73;;;2.60;;
1128;SDS011;553;51.038;7.216;2022-07-29T07:38:14;6.23;;;2.23;;
1128;SDS011;553;51.038;7.216;2022-07-29T07:40:41;3.43;;;1.90;;
1128;SDS011;553;51.038;7.216;2022-07-29T07:43:07;6.03;;;2.13;;
1128;SDS011;553;51.038;7.216;2022-07-29T07:45:34;4.63;;;2.20;;
1128;SDS011;553;51.038;7.216;2022-07-29T07:48:03;7.10;;;2.20;;
1128;SDS011;553;51.038;7.216;2022-07-29T07:50:30;6.30;;;2.10;;
1128;SDS011;553;51.038;7.216;2022-07-29T07:52:57;3.10;;;2.03;;
1128;SDS011;553;51.038;7.216;2022-07-29T07:55:25;5.77;;;2.10;;
1128;SDS011;553;51.038;7.216;2022-07-29T07:57:52;8.30;;;2.30;;
1128;SDS011;553;51.038;7.216;2022-07-29T08:00:20;3.87;;;2.00;;
1128;SDS011;553;51.038;7.216;2022-07-29T08:02:48;4.90;;;2.00;;
1128;SDS011;553;51.038;7.216;2022-07-29T08:05:16;5.60;;;2.00;;
1128;SDS011;553;51.038;7.216;2022-07-29T08:07:44;5.27;;;2.13;;
1128;SDS011;553;51.038;7.216;2022-07-29T08:10:13;9.40;;;1.87;;
1128;SDS011;553;51.038;7.216;2022-07-29T08:12:41;4.87;;;2.10;;
1128;SDS011;553;51.038;7.216;2022-07-29T08:15:08;4.53;;;2.13;;
1128;SDS011;553;51.038;7.216;2022-07-29T08:17:35;10.87;;;2.30;;
1128;SDS011;553;51.038;7.216;2022-07-29T08:20:02;4.60;;;2.00;;
1128;SDS011;553;51.038;7.216;2022-07-29T08:22:30;3.37;;;1.90;;
1128;SDS011;553;51.038;7.216;2022-07-29T08:24:56;3.43;;;2.13;;
1128;SDS011;553;51.038;7.216;2022-07-29T08:27:23;3.73;;;1.77;;
1128;SDS011;553;51.038;7.216;2022-07-29T08:30:09;4.67;;;1.83;;
1128;SDS011;553;51.038;7.216;2022-07-29T08:32:36;5.97;;;2.27;;
1128;SDS011;553;51.038;7.216;2022-07-29T08:35:22;4.17;;;1.83;;
1128;SDS011;553;51.038;7.216;2022-07-29T08:37:49;4.70;;;2.07;;
1128;SDS011;553;51.038;7.216;2022-07-29T08:40:17;4.70;;;2.10;;
1128;SDS011;553;51.038;7.216;2022-07-29T08:42:56;5.07;;;2.33;;
1128;SDS011;553;51.038;7.216;2022-07-29T08:45:22;6.50;;;2.53;;
1128;SDS011;553;51.038;7.216;2022-07-29T08:47:50;3.70;;;2.30;;
1128;SDS011;553;51.038;7.216;2022-07-29T08:50:17;3.27;;;1.93;;
1128;SDS011;553;51.038;7.216;2022-07-29T08:52:43;5.53;;;2.30;;
1128;SDS011;553;51.038;7.216;2022-07-29T08:55:10;4.90;;;1.90;;
1128;SDS011;553;51.038;7.216;2022-07-29T08:57:40;4.03;;;2.47;;
1128;SDS011;553;51.038;7.216;2022-07-29T09:00:19;3.57;;;1.60;;
1128;SDS011;553;51.038;7.216;2022-07-29T09:02:48;4.53;;;2.30;;
1128;SDS011;553;51.038;7.216;2022-07-29T09:05:21;5.33;;;1.97;;
1128;SDS011;553;51.038;7.216;2022-07-29T09:07:50;6.60;;;2.13;;
1128;SDS011;553;51.038;7.216;2022-07-29T09:10:17;6.13;;;2.60;;
1128;SDS011;553;51.038;7.216;2022-07-29T09:12:44;2.20;;;1.80;;
1128;SDS011;553;51.038;7.216;2022-07-29T09:15:10;2.90;;;1.77;;
1128;SDS011;553;51.038;7.216;2022-07-29T09:20:08;3.43;;;2.10;;
1128;SDS011;553;51.038;7.216;2022-07-29T09:22:36;5.10;;;2.20;;
1128;SDS011;553;51.038;7.216;2022-07-29T09:25:07;3.63;;;2.10;;
1128;SDS011;553;51.038;7.216;2022-07-29T09:27:37;4.43;;;2.30;;
1128;SDS011;553;51.038;7.216;2022-07-29T09:30:05;3.50;;;1.83;;
1128;SDS011;553;51.038;7.216;2022-07-29T09:32:55;3.50;;;1.97;;
1128;SDS011;553;51.038;7.216;2022-07-29T09:35:24;3.00;;;1.60;;
1128;SDS011;553;51.038;7.216;2022-07-29T09:37:52;4.50;;;2.13;;
1128;SDS011;553;51.038;7.216;2022-07-29T09:40:23;4.90;;;2.43;;
1128;SDS011;553;51.038;7.216;2022-07-29T09:42:52;3.37;;;2.27;;
1128;SDS011;553;51.038;7.216;2022-07-29T09:45:28;3.47;;;2.03;;
1128;SDS011;553;51.038;7.216;2022-07-29T09:47:59;3.87;;;1.83;;
1128;SDS011;553;51.038;7.216;2022-07-29T09:50:39;4.00;;;2.07;;
1128;SDS011;553;51.038;7.216;2022-07-29T09:53:07;3.40;;;2.20;;
1128;SDS011;553;51.038;7.216;2022-07-29T09:55:49;3.60;;;2.20;;
1128;SDS011;553;51.038;7.216;2022-07-29T09:58:18;7.33;;;2.67;;
1128;SDS011;553;51.038;7.216;2022-07-29T10:00:46;2.73;;;2.00;;
1128;SDS011;553;51.038;7.216;2022-07-29T10:03:14;2.60;;;1.93;;
1128;SDS011;553;51.038;7.216;2022-07-29T10:05:42;4.27;;;1.90;;
1128;SDS011;553;51.038;7.216;2022-07-29T10:08:10;2.30;;;1.80;;
1128;SDS011;553;51.038;7.216;2022-07-29T10:10:41;5.87;;;2.10;;
1128;SDS011;553;51.038;7.216;2022-07-29T10:13:12;5.57;;;2.57;;
1128;SDS011;553;51.038;7.216;2022-07-29T10:15:42;5.93;;;2.60;;
1128;SDS011;553;51.038;7.216;2022-07-29T10:18:14;4.10;;;2.30;;
1128;SDS011;553;51.038;7.216;2022-07-29T10:20:43;7.13;;;2.33;;
1128;SDS011;553;51.038;7.216;2022-07-29T10:23:10;3.90;;;2.40;;
1128;SDS011;553;51.038;7.216;2022-07-29T10:25:37;4.00;;;2.10;;
1128;SDS011;553;51.038;7.216;2022-07-29T10:28:04;3.27;;;2.30;;
1128;SDS011;553;51.038;7.216;2022-07-29T10:30:32;4.50;;;2.60;;
1128;SDS011;553;51.038;7.216;2022-07-29T10:41:10;4.17;;;2.43;;
1128;SDS011;553;51.038;7.216;2022-07-29T10:44:13;3.53;;;2.50;;
1128;SDS011;553;51.038;7.216;2022-07-29T10:46:49;5.70;;;2.40;;
1128;SDS011;553;51.038;7.216;2022-07-29T10:49:24;4.83;;;1.87;;
1128;SDS011;553;51.038;7.216;2022-07-29T10:52:08;7.60;;;2.33;;
1128;SDS011;553;51.038;7.216;2022-07-29T10:57:27;3.70;;;2.10;;
1128;SDS011;553;51.038;7.216;2022-07-29T11:00:26;4.60;;;2.10;;
1128;SDS011;553;51.038;7.216;2022-07-29T11:02:54;4.20;;;2.50;;
1128;SDS011;553;51.038;7.216;2022-07-29T11:05:24;4.93;;;2.30;;
1128;SDS011;553;51.038;7.216;2022-07-29T11:10:52;5.83;;;2.70;;
1128;SDS011;553;51.038;7.216;2022-07-29T11:16:14;10.40;;;3.50;;
1128;SDS011;553;51.038;7.216;2022-07-29T11:21:36;6.30;;;3.63;;
1128;SDS011;553;51.038;7.216;2022-07-29T11:24:24;4.20;;;3.23;;
1128;SDS011;553;51.038;7.216;2022-07-29T11:27:10;6.77;;;3.37;;
1128;SDS011;553;51.038;7.216;2022-07-29T11:29:39;4.20;;;2.97;;
1128;SDS011;553;51.038;7.216;2022-07-29T11:32:15;4.70;;;2.67;;
1128;SDS011;553;51.038;7.216;2022-07-29T11:34:49;4.83;;;2.83;;
1128;SDS011;553;51.038;7.216;2022-07-29T11:37:44;6.87;;;3.50;;
1128;SDS011;553;51.038;7.216;2022-07-29T11:40:22;4.83;;;2.53;;
1128;SDS011;553;51.038;7.216;2022-07-29T11:42:50;4.53;;;2.90;;
1128;SDS011;553;51.038;7.216;2022-07-29T11:45:18;5.23;;;3.00;;
1128;SDS011;553;51.038;7.216;2022-07-29T11:48:06;3.67;;;2.50;;
1128;SDS011;553;51.038;7.216;2022-07-29T11:50:57;4.30;;;2.50;;
1128;SDS011;553;51.038;7.216;2022-07-29T11:53:25;7.40;;;3.10;;
1128;SDS011;553;51.038;7.216;2022-07-29T11:55:58;5.80;;;2.80;;
1128;SDS011;553;51.038;7.216;2022-07-29T11:58:25;7.10;;;3.33;;
1128;SDS011;553;51.038;7.216;2022-07-29T12:00:54;7.20;;;3.20;;
1128;SDS011;553;51.038;7.216;2022-07-29T12:03:25;4.23;;;2.60;;
1128;SDS011;553;51.038;7.216;2022-07-29T12:06:01;5.97;;;2.60;;
1128;SDS011;553;51.038;7.216;2022-07-29T12:08:28;4.30;;;2.87;;
1128;SDS011;553;51.038;7.216;2022-07-29T12:10:56;6.50;;;2.50;;
1128;SDS011;553;51.038;7.216;2022-07-29T12:13:23;7.60;;;3.70;;
1128;SDS011;553;51.038;7.216;2022-07-29T12:16:03;7.23;;;2.90;;
1128;SDS011;553;51.038;7.216;2022-07-29T12:18:30;3.73;;;2.40;;
1128;SDS011;553;51.038;7.216;2022-07-29T12:21:01;5.77;;;2.90;;
1128;SDS011;553;51.038;7.216;2022-07-29T12:23:31;6.37;;;3.30;;
1128;SDS011;553;51.038;7.216;2022-07-29T12:26:00;4.20;;;2.40;;
1128;SDS011;553;51.038;7.216;2022-07-29T12:28:38;6.87;;;2.90;;
1128;SDS011;553;51.038;7.216;2022-07-29T12:31:06;5.00;;;3.03;;
1128;SDS011;553;51.038;7.216;2022-07-29T12:33:59;5.53;;;3.20;;
1128;SDS011;553;51.038;7.216;2022-07-29T12:36:26;7.67;;;3.33;;
1128;SDS011;553;51.038;7.216;2022-07-29T12:38:53;4.30;;;2.97;;
1128;SDS011;553;51.038;7.216;2022-07-29T12:41:21;4.70;;;2.97;;
1128;SDS011;553;51.038;7.216;2022-07-29T12:43:52;5.13;;;3.10;;
1128;SDS011;553;51.038;7.216;2022-07-29T12:46:20;2.67;;;2.20;;
1128;SDS011;553;51.038;7.216;2022-07-29T12:48:49;4.90;;;3.27;;
1128;SDS011;553;51.038;7.216;2022-07-29T12:51:31;4.80;;;2.67;;
1128;SDS011;553;51.038;7.216;2022-07-29T12:54:03;5.00;;;3.20;;
1128;SDS011;553;51.038;7.216;2022-07-29T12:56:33;6.77;;;3.30;;
1128;SDS011;553;51.038;7.216;2022-07-29T12:59:13;4.13;;;2.93;;
1128;SDS011;553;51.038;7.216;2022-07-29T13:01:41;9.73;;;2.70;;
1128;SDS011;553;51.038;7.216;2022-07-29T13:04:09;3.17;;;2.33;;
1128;SDS011;553;51.038;7.216;2022-07-29T13:06:40;6.33;;;2.90;;
1128;SDS011;553;51.038;7.216;2022-07-29T13:09:15;6.57;;;3.30;;
1128;SDS011;553;51.038;7.216;2022-07-29T13:11:50;4.33;;;2.90;;
1128;SDS011;553;51.038;7.216;2022-07-29T13:14:34;5.30;;;2.90;;
1128;SDS011;553;51.038;7.216;2022-07-29T13:17:06;7.67;;;2.80;;
1128;SDS011;553;51.038;7.216;2022-07-29T13:22:14;4.97;;;2.50;;
1128;SDS011;553;51.038;7.216;2022-07-29T13:24:52;6.33;;;2.63;;
1128;SDS011;553;51.038;7.216;2022-07-29T13:27:25;3.73;;;2.60;;
1128;SDS011;553;51.038;7.216;2022-07-29T13:29:54;3.93;;;2.40;;
1128;SDS011;553;51.038;7.216;2022-07-29T13:35:05;4.43;;;2.67;;
1128;SDS011;553;51.038;7.216;2022-07-29T13:37:34;6.17;;;2.93;;
1128;SDS011;553;51.038;7.216;2022-07-29T13:40:04;8.53;;;3.57;;
1128;SDS011;553;51.038;7.216;2022-07-29T13:42:33;5.07;;;2.53;;
1128;SDS011;553;51.038;7.216;2022-07-29T13:45:00;4.30;;;3.00;;
1128;SDS011;553;51.038;7.216;2022-07-29T13:47:28;5.47;;;2.87;;
1128;SDS011;553;51.038;7.216;2022-07-29T13:49:58;6.00;;;2.80;;
1128;SDS011;553;51.038;7.216;2022-07-29T13:52:31;4.20;;;3.03;;
1128;SDS011;553;51.038;7.216;2022-07-29T13:54:58;4.33;;;3.00;;
1128;SDS011;553;51.038;7.216;2022-07-29T13:57:25;7.40;;;3.00;;
1128;SDS011;553;51.038;7.216;2022-07-29T13:59:51;3.27;;;2.97;;
1128;SDS011;553;51.038;7.216;2022-07-29T14:02:20;6.07;;;3.30;;
1128;SDS011;553;51.038;7.216;2022-07-29T14:04:51;6.00;;;2.73;;
1128;SDS011;553;51.038;7.216;2022-07-29T14:07:20;4.10;;;2.93;;
1128;SDS011;553;51.038;7.216;2022-07-29T14:09:47;5.33;;;2.60;;
1128;SDS011;553;51.038;7.216;2022-07-29T14:12:14;5.93;;;3.63;;
1128;SDS011;553;51.038;7.216;2022-07-29T14:14:41;3.87;;;2.23;;
1128;SDS011;553;51.038;7.216;2022-07-29T14:17:08;4.60;;;2.60;;
1128;SDS011;553;51.038;7.216;2022-07-29T14:19:35;4.37;;;2.87;;
1128;SDS011;553;51.038;7.216;2022-07-29T14:22:04;6.73;;;3.03;;
1128;SDS011;553;51.038;7.216;2022-07-29T14:24:32;6.13;;;3.30;;
1128;SDS011;553;51.038;7.216;2022-07-29T14:27:02;4.87;;;2.90;;
1128;SDS011;553;51.038;7.216;2022-07-29T14:29:30;7.40;;;2.77;;
1128;SDS011;553;51.038;7.216;2022-07-29T14:32:06;3.60;;;2.70;;
1128;SDS011;553;51.038;7.216;2022-07-29T14:34:34;7.90;;;3.20;;
1128;SDS011;553;51.038;7.216;2022-07-29T14:37:02;4.40;;;2.90;;
1128;SDS011;553;51.038;7.216;2022-07-29T14:39:32;7.90;;;2.40;;
1128;SDS011;553;51.038;7.216;2022-07-29T14:42:02;3.60;;;2.77;;
1128;SDS011;553;51.038;7.216;2022-07-29T14:44:29;4.77;;;2.60;;
1128;SDS011;553;51.038;7.216;2022-07-29T14:47:00;5.50;;;2.73;;
1128;SDS011;553;51.038;7.216;2022-07-29T14:49:33;5.27;;;3.00;;
1128;SDS011;553;51.038;7.216;2022-07-29T14:51:59;7.10;;;2.67;;
1128;SDS011;553;51.038;7.216;2022-07-29T14:54:27;4.43;;;2.57;;
1128;SDS011;553;51.038;7.216;2022-07-29T14:56:53;4.50;;;2.80;;
1128;SDS011;553;51.038;7.216;2022-07-29T14:59:23;8.27;;;3.43;;
1128;SDS011;553;51.038;7.216;2022-07-29T15:01:49;5.80;;;2.80;;
1128;SDS011;553;51.038;7.216;2022-07-29T15:04:16;4.20;;;2.77;;
1128;SDS011;553;51.038;7.216;2022-07-29T15:06:43;5.10;;;3.07;;
1128;SDS011;553;51.038;7.216;2022-07-29T15:09:10;7.83;;;3.07;;
1128;SDS011;553;51.038;7.216;2022-07-29T15:11:36;4.33;;;2.70;;
1128;SDS011;553;51.038;7.216;2022-07-29T15:14:04;5.50;;;2.97;;
1128;SDS011;553;51.038;7.216;2022-07-29T15:16:32;6.57;;;3.30;;
1128;SDS011;553;51.038;7.216;2022-07-29T15:19:01;5.63;;;2.90;;
1128;SDS011;553;51.038;7.216;2022-07-29T15:21:28;5.43;;;3.17;;
1128;SDS011;553;51.038;7.216;2022-07-29T15:23:55;4.87;;;2.93;;
1128;SDS011;553;51.038;7.216;2022-07-29T15:26:22;5.00;;;2.90;;
1128;SDS011;553;51.038;7.216;2022-07-29T15:28:49;8.00;;;3.60;;
1128;SDS011;553;51.038;7.216;2022-07-29T15:31:16;5.97;;;3.13;;
1128;SDS011;553;51.038;7.216;2022-07-29T15:33:44;4.97;;;3.30;;
1128;SDS011;553;51.038;7.216;2022-07-29T15:36:11;6.23;;;2.90;;
1128;SDS011;553;51.038;7.216;2022-07-29T15:38:58;4.57;;;3.00;;
1128;SDS011;553;51.038;7.216;2022-07-29T15:41:25;5.93;;;3.10;;
1128;SDS011;553;51.038;7.216;2022-07-29T15:43:52;4.47;;;3.40;;
1128;SDS011;553;51.038;7.216;2022-07-29T15:46:18;7.60;;;3.13;;
1128;SDS011;553;51.038;7.216;2022-07-29T15:49:04;5.83;;;3.80;;
1128;SDS011;553;51.038;7.216;2022-07-29T15:51:32;3.80;;;2.90;;
1128;SDS011;553;51.038;7.216;2022-07-29T15:54:02;5.07;;;3.43;;
1128;SDS011;553;51.038;7.216;2022-07-29T15:56:29;6.60;;;3.10;;
1128;SDS011;553;51.038;7.216;2022-07-29T15:58:56;5.43;;;2.90;;
1128;SDS011;553;51.038;7.216;2022-07-29T16:01:24;3.60;;;2.90;;
1128;SDS011;553;51.038;7.216;2022-07-29T16:03:51;3.50;;;2.90;;
1128;SDS011;553;51.038;7.216;2022-07-29T16:06:18;5.07;;;3.60;;
1128;SDS011;553;51.038;7.216;2022-07-29T16:08:45;7.07;;;3.00;;
1128;SDS011;553;51.038;7.216;2022-07-29T16:11:12;4.50;;;3.53;;
1128;SDS011;553;51.038;7.216;2022-07-29T16:13:39;8.50;;;4.60;;
1128;SDS011;553;51.038;7.216;2022-07-29T16:16:06;6.20;;;3.47;;
1128;SDS011;553;51.038;7.216;2022-07-29T16:18:34;4.50;;;4.10;;
1128;SDS011;553;51.038;7.216;2022-07-29T16:21:00;7.23;;;3.27;;
1128;SDS011;553;51.038;7.216;2022-07-29T16:23:27;10.50;;;7.80;;
1128;SDS011;553;51.038;7.216;2022-07-29T16:25:54;4.53;;;2.93;;
1128;SDS011;553;51.038;7.216;2022-07-29T16:28:26;6.53;;;3.00;;
1128;SDS011;553;51.038;7.216;2022-07-29T16:30:54;6.10;;;3.70;;